sensor_id;sensor_type;location;lat;lon;timestamp;temperature;humidity
33994;DHT22;20673;48.980;8.138;2022-08-19T00:00:35;18.50;99.90
33994;DHT22;20673;48.980;8.138;2022-08-19T00:03:04;18.50;99.90
33994;DHT22;20673;48.980;8.138;2022-08-19T00:05:31;18.50;99.90
33994;DHT22;20673;48.980;8.138;2022-08-19T00:07:57;18.50;99.90
33994;DHT22;20673;48.980;8.138;2022-08-19T00:10:23;18.70;99.90
33994;DHT22;20673;48.980;8.138;2022-08-19T00:12:50;18.60;99.90
33994;DHT22;20673;48.980;8.138;2022-08-19T00:15:19;18.50;99.90
33994;DHT22;20673;48.980;8.138;2022-08-19T00:17:47;18.50;99.90
33994;DHT22;20673;48.980;8.138;2022-08-19T00:20:15;18.40;99.90
33994;DHT22;20673;48.980;8.138;2022-08-19T00:22:46;18.50;99.90
33994;DHT22;20673;48.980;8.138;2022-08-19T00:25:14;18.50;99.90
33994;DHT22;20673;48.980;8.138;2022-08-19T00:27:41;18.50;99.90
33994;DHT22;20673;48.980;8.138;2022-08-19T00:30:08;18.40;99.90
33994;DHT22;20673;48.980;8.138;2022-08-19T00:32:36;18.50;99.90
33994;DHT22;20673;48.980;8.138;2022-08-19T00:35:02;18.40;99.90
33994;DHT22;20673;48.980;8.138;2022-08-19T00:37:29;18.50;99.90
33994;DHT22;20673;48.980;8.138;2022-08-19T00:39:55;18.40;99.90
33994;DHT22;20673;48.980;8.138;2022-08-19T00:42:22;18.30;99.90
33994;DHT22;20673;48.980;8.138;2022-08-19T00:44:49;18.30;99.90
33994;DHT22;20673;48.980;8.138;2022-08-19T00:47:16;18.30;99.90
33994;DHT22;20673;48.980;8.138;2022-08-19T00:49:48;18.30;99.90
33994;DHT22;20673;48.980;8.138;2022-08-19T00:52:27;18.40;99.90
33994;DHT22;20673;48.980;8.138;2022-08-19T00:54:53;18.30;99.90
33994;DHT22;20673;48.980;8.138;2022-08-19T00:57:25;18.30;99.90
33994;DHT22;20673;48.980;8.138;2022-08-19T00:59:59;18.40;99.90
33994;DHT22;20673;48.980;8.138;2022-08-19T01:02:28;18.40;99.90
33994;DHT22;20673;48.980;8.138;2022-08-19T01:04:55;18.40;99.90
33994;DHT22;20673;48.980;8.138;2022-08-19T01:07:22;18.40;99.90
33994;DHT22;20673;48.980;8.138;2022-08-19T01:09:49;18.40;99.90
33994;DHT22;20673;48.980;8.138;2022-08-19T01:12:16;18.40;99.90
33994;DHT22;20673;48.980;8.138;2022-08-19T01:14:44;18.40;99.90
33994;DHT22;20673;48.980;8.138;2022-08-19T01:17:12;18.40;99.90
33994;DHT22;20673;48.980;8.138;2022-08-19T01:19:41;18.40;99.90
33994;DHT22;20673;48.980;8.138;2022-08-19T01:24:51;18.50;99.90
33994;DHT22;20673;48.980;8.138;2022-08-19T01:27:18;18.50;99.90
33994;DHT22;20673;48.980;8.138;2022-08-19T01:29:45;18.50;99.90
33994;DHT22;20673;48.980;8.138;2022-08-19T01:32:14;18.60;99.90
33994;DHT22;20673;48.980;8.138;2022-08-19T01:34:42;18.50;99.90
33994;DHT22;20673;48.980;8.138;2022-08-19T01:37:11;18.50;99.90
33994;DHT22;20673;48.980;8.138;2022-08-19T01:39:40;18.60;99.90
33994;DHT22;20673;48.980;8.138;2022-08-19T01:42:08;18.60;99.90
33994;DHT22;20673;48.980;8.138;2022-08-19T01:44:38;18.60;99.90
33994;DHT22;20673;48.980;8.138;2022-08-19T01:47:07;18.60;99.90
33994;DHT22;20673;48.980;8.138;2022-08-19T01:49:35;18.60;99.90
33994;DHT22;20673;48.980;8.138;2022-08-19T01:52:03;18.60;99.90
33994;DHT22;20673;48.980;8.138;2022-08-19T01:54:30;18.60;99.90
33994;DHT22;20673;48.980;8.138;2022-08-19T01:57:03;18.60;99.90
33994;DHT22;20673;48.980;8.138;2022-08-19T01:59:32;18.70;99.90
33994;DHT22;20673;48.980;8.138;2022-08-19T02:01:59;18.70;99.90
33994;DHT22;20673;48.980;8.138;2022-08-19T02:04:25;18.80;99.90
33994;DHT22;20673;48.980;8.138;2022-08-19T02:06:52;18.70;99.90
33994;DHT22;20673;48.980;8.138;2022-08-19T02:09:18;18.70;99.90
33994;DHT22;20673;48.980;8.138;2022-08-19T02:11:44;18.70;99.90
33994;DHT22;20673;48.980;8.138;2022-08-19T02:14:10;18.60;99.90
33994;DHT22;20673;48.980;8.138;2022-08-19T02:16:37;18.50;99.90
33994;DHT22;20673;48.980;8.138;2022-08-19T02:19:04;18.40;99.90
33994;DHT22;20673;48.980;8.138;2022-08-19T02:21:30;18.40;99.90
33994;DHT22;20673;48.980;8.138;2022-08-19T02:23:57;18.40;99.90
33994;DHT22;20673;48.980;8.138;2022-08-19T02:26:24;18.30;99.90
33994;DHT22;20673;48.980;8.138;2022-08-19T02:28:52;18.30;99.90
33994;DHT22;20673;48.980;8.138;2022-08-19T02:31:20;18.30;99.90
33994;DHT22;20673;48.980;8.138;2022-08-19T02:33:48;18.30;99.90
33994;DHT22;20673;48.980;8.138;2022-08-19T02:36:16;18.30;99.90
33994;DHT22;20673;48.980;8.138;2022-08-19T02:38:43;18.30;99.90
33994;DHT22;20673;48.980;8.138;2022-08-19T02:41:17;18.30;99.90
33994;DHT22;20673;48.980;8.138;2022-08-19T02:43:42;18.30;99.90
33994;DHT22;20673;48.980;8.138;2022-08-19T02:46:21;18.30;99.90
33994;DHT22;20673;48.980;8.138;2022-08-19T02:48:52;18.30;99.90
33994;DHT22;20673;48.980;8.138;2022-08-19T02:51:22;18.30;99.90
33994;DHT22;20673;48.980;8.138;2022-08-19T02:53:51;18.30;99.90
33994;DHT22;20673;48.980;8.138;2022-08-19T02:56:18;18.30;99.90
33994;DHT22;20673;48.980;8.138;2022-08-19T02:58:46;18.30;99.90
33994;DHT22;20673;48.980;8.138;2022-08-19T03:01:22;18.40;99.90
33994;DHT22;20673;48.980;8.138;2022-08-19T03:03:51;18.40;99.90
33994;DHT22;20673;48.980;8.138;2022-08-19T03:06:18;18.40;99.90
33994;DHT22;20673;48.980;8.138;2022-08-19T03:08:46;18.40;99.90
33994;DHT22;20673;48.980;8.138;2022-08-19T03:11:24;18.30;99.90
33994;DHT22;20673;48.980;8.138;2022-08-19T03:13:56;18.30;99.90
33994;DHT22;20673;48.980;8.138;2022-08-19T03:16:26;18.20;99.90
33994;DHT22;20673;48.980;8.138;2022-08-19T03:18:56;18.20;99.90
33994;DHT22;20673;48.980;8.138;2022-08-19T03:21:26;18.20;99.90
33994;DHT22;20673;48.980;8.138;2022-08-19T03:23:55;18.20;99.90
33994;DHT22;20673;48.980;8.138;2022-08-19T03:26:24;18.20;99.90
33994;DHT22;20673;48.980;8.138;2022-08-19T03:28:51;18.20;99.90
33994;DHT22;20673;48.980;8.138;2022-08-19T03:31:20;18.20;99.90
33994;DHT22;20673;48.980;8.138;2022-08-19T03:33:49;18.10;99.90
33994;DHT22;20673;48.980;8.138;2022-08-19T03:36:18;18.10;99.90
33994;DHT22;20673;48.980;8.138;2022-08-19T03:38:52;18.10;99.90
33994;DHT22;20673;48.980;8.138;2022-08-19T03:41:25;18.10;99.90
33994;DHT22;20673;48.980;8.138;2022-08-19T03:43:53;18.10;99.90
33994;DHT22;20673;48.980;8.138;2022-08-19T03:46:23;18.20;99.90
33994;DHT22;20673;48.980;8.138;2022-08-19T03:48:54;18.20;99.90
33994;DHT22;20673;48.980;8.138;2022-08-19T03:51:27;18.10;99.90
33994;DHT22;20673;48.980;8.138;2022-08-19T03:53:59;18.10;99.90
33994;DHT22;20673;48.980;8.138;2022-08-19T03:56:29;18.10;99.90
33994;DHT22;20673;48.980;8.138;2022-08-19T03:58:56;18.10;99.90
33994;DHT22;20673;48.980;8.138;2022-08-19T04:01:26;18.10;99.90
33994;DHT22;20673;48.980;8.138;2022-08-19T04:03:56;18.10;99.90
33994;DHT22;20673;48.980;8.138;2022-08-19T04:06:26;18.10;99.90
33994;DHT22;20673;48.980;8.138;2022-08-19T04:08:56;18.10;99.90
33994;DHT22;20673;48.980;8.138;2022-08-19T04:11:26;18.10;99.90
33994;DHT22;20673;48.980;8.138;2022-08-19T04:13:54;18.10;99.90
33994;DHT22;20673;48.980;8.138;2022-08-19T04:16:24;18.10;99.90
33994;DHT22;20673;48.980;8.138;2022-08-19T04:18:54;18.10;99.90
33994;DHT22;20673;48.980;8.138;2022-08-19T04:21:24;18.00;99.90
33994;DHT22;20673;48.980;8.138;2022-08-19T04:23:52;18.10;99.90
33994;DHT22;20673;48.980;8.138;2022-08-19T04:26:21;18.10;99.90
33994;DHT22;20673;48.980;8.138;2022-08-19T04:28:50;18.10;99.90
33994;DHT22;20673;48.980;8.138;2022-08-19T04:31:20;18.10;99.90
33994;DHT22;20673;48.980;8.138;2022-08-19T04:33:47;18.00;99.90
33994;DHT22;20673;48.980;8.138;2022-08-19T04:36:19;18.00;99.90
33994;DHT22;20673;48.980;8.138;2022-08-19T04:38:48;17.90;99.90
33994;DHT22;20673;48.980;8.138;2022-08-19T04:41:15;17.90;99.90
33994;DHT22;20673;48.980;8.138;2022-08-19T04:44:00;17.90;99.90
33994;DHT22;20673;48.980;8.138;2022-08-19T04:46:28;17.90;99.90
33994;DHT22;20673;48.980;8.138;2022-08-19T04:48:56;17.90;99.90
33994;DHT22;20673;48.980;8.138;2022-08-19T04:51:23;17.90;99.90
33994;DHT22;20673;48.980;8.138;2022-08-19T04:53:49;17.90;99.90
33994;DHT22;20673;48.980;8.138;2022-08-19T04:56:18;17.90;99.90
33994;DHT22;20673;48.980;8.138;2022-08-19T04:58:48;18.00;99.90
33994;DHT22;20673;48.980;8.138;2022-08-19T05:01:20;18.00;99.90
33994;DHT22;20673;48.980;8.138;2022-08-19T05:03:51;18.00;99.90
33994;DHT22;20673;48.980;8.138;2022-08-19T05:06:21;18.00;99.90
33994;DHT22;20673;48.980;8.138;2022-08-19T05:08:48;18.10;99.90
33994;DHT22;20673;48.980;8.138;2022-08-19T05:13:48;18.20;99.90
33994;DHT22;20673;48.980;8.138;2022-08-19T05:16:17;18.20;99.90
33994;DHT22;20673;48.980;8.138;2022-08-19T05:18:45;18.30;99.90
33994;DHT22;20673;48.980;8.138;2022-08-19T05:21:31;18.30;99.90
33994;DHT22;20673;48.980;8.138;2022-08-19T05:24:17;18.40;99.90
33994;DHT22;20673;48.980;8.138;2022-08-19T05:26:46;18.50;99.90
33994;DHT22;20673;48.980;8.138;2022-08-19T05:29:15;18.50;99.90
33994;DHT22;20673;48.980;8.138;2022-08-19T05:31:44;18.60;99.90
33994;DHT22;20673;48.980;8.138;2022-08-19T05:34:12;18.70;99.90
33994;DHT22;20673;48.980;8.138;2022-08-19T05:36:41;18.70;99.90
33994;DHT22;20673;48.980;8.138;2022-08-19T05:39:11;18.80;99.90
33994;DHT22;20673;48.980;8.138;2022-08-19T05:41:44;18.90;99.90
33994;DHT22;20673;48.980;8.138;2022-08-19T05:44:12;18.90;99.90
33994;DHT22;20673;48.980;8.138;2022-08-19T05:46:41;19.00;99.90
33994;DHT22;20673;48.980;8.138;2022-08-19T05:49:15;19.00;99.90
33994;DHT22;20673;48.980;8.138;2022-08-19T05:51:42;19.20;99.90
33994;DHT22;20673;48.980;8.138;2022-08-19T05:54:09;19.20;99.90
33994;DHT22;20673;48.980;8.138;2022-08-19T05:56:37;19.30;99.90
33994;DHT22;20673;48.980;8.138;2022-08-19T05:59:05;19.30;99.90
33994;DHT22;20673;48.980;8.138;2022-08-19T06:01:34;19.40;99.90
33994;DHT22;20673;48.980;8.138;2022-08-19T06:04:02;19.40;99.90
33994;DHT22;20673;48.980;8.138;2022-08-19T06:06:29;19.60;99.90
33994;DHT22;20673;48.980;8.138;2022-08-19T06:08:55;19.60;99.90
33994;DHT22;20673;48.980;8.138;2022-08-19T06:11:25;19.70;99.90
33994;DHT22;20673;48.980;8.138;2022-08-19T06:14:09;19.80;99.90
33994;DHT22;20673;48.980;8.138;2022-08-19T06:16:39;20.00;99.90
33994;DHT22;20673;48.980;8.138;2022-08-19T06:19:10;20.10;99.90
33994;DHT22;20673;48.980;8.138;2022-08-19T06:21:44;20.10;99.90
33994;DHT22;20673;48.980;8.138;2022-08-19T06:24:14;20.30;99.90
33994;DHT22;20673;48.980;8.138;2022-08-19T06:26:44;20.30;99.90
33994;DHT22;20673;48.980;8.138;2022-08-19T06:29:14;20.40;99.90
33994;DHT22;20673;48.980;8.138;2022-08-19T06:31:44;20.50;99.90
33994;DHT22;20673;48.980;8.138;2022-08-19T06:34:12;20.50;99.90
33994;DHT22;20673;48.980;8.138;2022-08-19T06:36:42;20.60;99.90
33994;DHT22;20673;48.980;8.138;2022-08-19T06:39:16;20.70;99.90
33994;DHT22;20673;48.980;8.138;2022-08-19T06:41:49;20.80;99.90
33994;DHT22;20673;48.980;8.138;2022-08-19T06:44:18;20.90;99.90
33994;DHT22;20673;48.980;8.138;2022-08-19T06:46:46;20.90;99.90
33994;DHT22;20673;48.980;8.138;2022-08-19T06:49:14;20.90;99.90
33994;DHT22;20673;48.980;8.138;2022-08-19T06:51:43;21.00;99.90
33994;DHT22;20673;48.980;8.138;2022-08-19T06:54:13;21.10;99.90
33994;DHT22;20673;48.980;8.138;2022-08-19T06:56:42;21.10;99.90
33994;DHT22;20673;48.980;8.138;2022-08-19T06:59:13;21.20;99.90
33994;DHT22;20673;48.980;8.138;2022-08-19T07:01:49;21.30;99.90
33994;DHT22;20673;48.980;8.138;2022-08-19T07:04:20;21.30;99.90
33994;DHT22;20673;48.980;8.138;2022-08-19T07:06:49;21.40;99.90
33994;DHT22;20673;48.980;8.138;2022-08-19T07:09:18;21.50;99.90
33994;DHT22;20673;48.980;8.138;2022-08-19T07:11:47;21.60;99.90
33994;DHT22;20673;48.980;8.138;2022-08-19T07:14:17;21.70;99.90
33994;DHT22;20673;48.980;8.138;2022-08-19T07:16:47;21.90;99.90
33994;DHT22;20673;48.980;8.138;2022-08-19T07:19:15;21.90;99.90
33994;DHT22;20673;48.980;8.138;2022-08-19T07:21:42;22.00;99.90
33994;DHT22;20673;48.980;8.138;2022-08-19T07:24:09;22.10;99.90
33994;DHT22;20673;48.980;8.138;2022-08-19T07:26:40;22.30;99.90
33994;DHT22;20673;48.980;8.138;2022-08-19T07:29:09;22.50;99.90
33994;DHT22;20673;48.980;8.138;2022-08-19T07:31:36;22.70;99.90
33994;DHT22;20673;48.980;8.138;2022-08-19T07:34:06;22.80;99.90
33994;DHT22;20673;48.980;8.138;2022-08-19T07:36:36;23.00;99.90
33994;DHT22;20673;48.980;8.138;2022-08-19T07:39:07;23.20;99.90
33994;DHT22;20673;48.980;8.138;2022-08-19T07:41:36;23.50;99.90
33994;DHT22;20673;48.980;8.138;2022-08-19T07:44:03;23.80;99.90
33994;DHT22;20673;48.980;8.138;2022-08-19T07:46:36;23.90;99.90
33994;DHT22;20673;48.980;8.138;2022-08-19T07:49:04;24.10;99.90
33994;DHT22;20673;48.980;8.138;2022-08-19T07:51:32;24.20;99.90
33994;DHT22;20673;48.980;8.138;2022-08-19T07:53:58;24.10;99.90
33994;DHT22;20673;48.980;8.138;2022-08-19T07:56:26;23.90;99.90
33994;DHT22;20673;48.980;8.138;2022-08-19T07:58:52;24.00;99.90
33994;DHT22;20673;48.980;8.138;2022-08-19T08:01:24;24.10;99.90
33994;DHT22;20673;48.980;8.138;2022-08-19T08:03:55;24.40;99.90
33994;DHT22;20673;48.980;8.138;2022-08-19T08:06:40;24.70;99.90
33994;DHT22;20673;48.980;8.138;2022-08-19T08:09:32;24.70;99.90
33994;DHT22;20673;48.980;8.138;2022-08-19T08:12:10;24.80;99.90
33994;DHT22;20673;48.980;8.138;2022-08-19T08:14:44;25.10;99.90
33994;DHT22;20673;48.980;8.138;2022-08-19T08:17:14;25.50;99.90
33994;DHT22;20673;48.980;8.138;2022-08-19T08:19:44;25.70;99.90
33994;DHT22;20673;48.980;8.138;2022-08-19T08:22:14;25.60;99.90
33994;DHT22;20673;48.980;8.138;2022-08-19T08:25:04;25.50;99.90
33994;DHT22;20673;48.980;8.138;2022-08-19T08:27:43;25.50;99.90
33994;DHT22;20673;48.980;8.138;2022-08-19T08:30:14;25.40;99.90
33994;DHT22;20673;48.980;8.138;2022-08-19T08:32:46;25.50;99.90
33994;DHT22;20673;48.980;8.138;2022-08-19T08:35:15;25.40;99.90
33994;DHT22;20673;48.980;8.138;2022-08-19T08:37:43;25.30;99.90
33994;DHT22;20673;48.980;8.138;2022-08-19T08:45:46;25.60;99.90
33994;DHT22;20673;48.980;8.138;2022-08-19T08:48:20;25.60;99.90
33994;DHT22;20673;48.980;8.138;2022-08-19T08:51:03;25.70;99.90
33994;DHT22;20673;48.980;8.138;2022-08-19T08:53:32;25.90;99.90
33994;DHT22;20673;48.980;8.138;2022-08-19T08:56:03;26.30;99.90
33994;DHT22;20673;48.980;8.138;2022-08-19T08:58:39;26.30;99.90
33994;DHT22;20673;48.980;8.138;2022-08-19T09:01:10;26.40;99.90
33994;DHT22;20673;48.980;8.138;2022-08-19T09:03:39;26.50;99.90
33994;DHT22;20673;48.980;8.138;2022-08-19T09:06:14;26.70;99.90
33994;DHT22;20673;48.980;8.138;2022-08-19T09:09:20;26.90;99.90
33994;DHT22;20673;48.980;8.138;2022-08-19T09:12:10;27.00;99.90
33994;DHT22;20673;48.980;8.138;2022-08-19T09:17:11;27.30;99.90
33994;DHT22;20673;48.980;8.138;2022-08-19T09:19:54;27.20;99.90
33994;DHT22;20673;48.980;8.138;2022-08-19T09:22:26;26.90;99.90
33994;DHT22;20673;48.980;8.138;2022-08-19T09:24:53;27.30;99.90
33994;DHT22;20673;48.980;8.138;2022-08-19T09:27:21;27.60;99.90
33994;DHT22;20673;48.980;8.138;2022-08-19T09:29:52;27.60;99.90
33994;DHT22;20673;48.980;8.138;2022-08-19T09:32:20;27.70;99.90
33994;DHT22;20673;48.980;8.138;2022-08-19T09:34:48;27.80;99.90
33994;DHT22;20673;48.980;8.138;2022-08-19T09:37:14;28.00;99.90
33994;DHT22;20673;48.980;8.138;2022-08-19T09:39:41;28.10;99.90
33994;DHT22;20673;48.980;8.138;2022-08-19T09:42:08;28.30;99.90
33994;DHT22;20673;48.980;8.138;2022-08-19T09:44:40;28.40;99.90
33994;DHT22;20673;48.980;8.138;2022-08-19T09:47:08;28.60;99.90
33994;DHT22;20673;48.980;8.138;2022-08-19T09:49:35;29.00;99.90
33994;DHT22;20673;48.980;8.138;2022-08-19T09:52:03;29.40;99.90
33994;DHT22;20673;48.980;8.138;2022-08-19T09:54:29;29.60;99.90
33994;DHT22;20673;48.980;8.138;2022-08-19T09:56:58;30.20;99.90
33994;DHT22;20673;48.980;8.138;2022-08-19T09:59:26;30.30;99.90
33994;DHT22;20673;48.980;8.138;2022-08-19T10:01:53;30.00;99.90
33994;DHT22;20673;48.980;8.138;2022-08-19T10:04:20;29.60;99.90
33994;DHT22;20673;48.980;8.138;2022-08-19T10:06:51;28.90;99.90
33994;DHT22;20673;48.980;8.138;2022-08-19T10:09:19;28.90;99.90
33994;DHT22;20673;48.980;8.138;2022-08-19T10:11:45;29.00;99.90
33994;DHT22;20673;48.980;8.138;2022-08-19T10:14:15;28.90;99.90
33994;DHT22;20673;48.980;8.138;2022-08-19T10:16:42;28.90;99.90
33994;DHT22;20673;48.980;8.138;2022-08-19T10:19:09;28.70;99.90
33994;DHT22;20673;48.980;8.138;2022-08-19T10:21:36;28.60;99.90
33994;DHT22;20673;48.980;8.138;2022-08-19T10:24:04;29.00;99.90
33994;DHT22;20673;48.980;8.138;2022-08-19T10:26:34;28.90;99.90
33994;DHT22;20673;48.980;8.138;2022-08-19T10:29:04;29.20;99.90
33994;DHT22;20673;48.980;8.138;2022-08-19T10:31:32;29.10;99.90
33994;DHT22;20673;48.980;8.138;2022-08-19T10:34:00;28.80;99.90
33994;DHT22;20673;48.980;8.138;2022-08-19T10:36:29;28.10;99.90
33994;DHT22;20673;48.980;8.138;2022-08-19T10:39:00;27.80;99.90
33994;DHT22;20673;48.980;8.138;2022-08-19T10:41:31;27.60;99.90
33994;DHT22;20673;48.980;8.138;2022-08-19T10:44:03;27.50;99.90
33994;DHT22;20673;48.980;8.138;2022-08-19T10:46:31;27.40;99.90
33994;DHT22;20673;48.980;8.138;2022-08-19T10:49:01;27.40;99.90
33994;DHT22;20673;48.980;8.138;2022-08-19T10:51:29;27.30;99.90
33994;DHT22;20673;48.980;8.138;2022-08-19T10:54:14;27.00;99.90
33994;DHT22;20673;48.980;8.138;2022-08-19T10:56:42;26.90;99.90
33994;DHT22;20673;48.980;8.138;2022-08-19T10:59:26;26.70;99.90
33994;DHT22;20673;48.980;8.138;2022-08-19T11:01:59;26.70;99.90
33994;DHT22;20673;48.980;8.138;2022-08-19T11:04:27;26.80;99.90
33994;DHT22;20673;48.980;8.138;2022-08-19T11:06:55;27.10;99.90
33994;DHT22;20673;48.980;8.138;2022-08-19T11:09:24;27.20;99.90
33994;DHT22;20673;48.980;8.138;2022-08-19T11:11:51;27.60;99.90
33994;DHT22;20673;48.980;8.138;2022-08-19T11:14:20;27.80;99.90
33994;DHT22;20673;48.980;8.138;2022-08-19T11:16:48;27.70;99.90
33994;DHT22;20673;48.980;8.138;2022-08-19T11:19:15;27.60;99.90
33994;DHT22;20673;48.980;8.138;2022-08-19T11:21:46;27.40;99.90
33994;DHT22;20673;48.980;8.138;2022-08-19T11:24:20;27.20;99.90
33994;DHT22;20673;48.980;8.138;2022-08-19T11:26:48;27.00;99.90
33994;DHT22;20673;48.980;8.138;2022-08-19T11:29:18;26.80;99.90
33994;DHT22;20673;48.980;8.138;2022-08-19T11:31:48;26.80;99.90
33994;DHT22;20673;48.980;8.138;2022-08-19T11:34:18;27.60;99.90
33994;DHT22;20673;48.980;8.138;2022-08-19T11:36:46;28.10;99.90
33994;DHT22;20673;48.980;8.138;2022-08-19T11:39:16;28.70;99.90
33994;DHT22;20673;48.980;8.138;2022-08-19T11:41:44;29.50;99.90
33994;DHT22;20673;48.980;8.138;2022-08-19T11:44:10;29.90;99.90
33994;DHT22;20673;48.980;8.138;2022-08-19T11:46:39;30.10;99.90
33994;DHT22;20673;48.980;8.138;2022-08-19T11:49:07;30.30;99.90
33994;DHT22;20673;48.980;8.138;2022-08-19T11:51:35;30.40;99.90
33994;DHT22;20673;48.980;8.138;2022-08-19T11:54:04;29.90;99.90
33994;DHT22;20673;48.980;8.138;2022-08-19T11:56:31;29.30;99.90
33994;DHT22;20673;48.980;8.138;2022-08-19T11:58:58;29.10;99.90
33994;DHT22;20673;48.980;8.138;2022-08-19T12:01:27;29.20;99.90
33994;DHT22;20673;48.980;8.138;2022-08-19T12:03:54;29.30;99.90
33994;DHT22;20673;48.980;8.138;2022-08-19T12:06:25;29.00;99.90
33994;DHT22;20673;48.980;8.138;2022-08-19T12:08:59;29.10;99.90
33994;DHT22;20673;48.980;8.138;2022-08-19T12:11:27;29.00;99.90
33994;DHT22;20673;48.980;8.138;2022-08-19T12:13:54;29.40;99.90
33994;DHT22;20673;48.980;8.138;2022-08-19T12:16:24;29.70;99.90
33994;DHT22;20673;48.980;8.138;2022-08-19T12:18:52;29.50;99.90
33994;DHT22;20673;48.980;8.138;2022-08-19T12:21:21;29.30;99.90
33994;DHT22;20673;48.980;8.138;2022-08-19T12:23:51;29.70;99.90
33994;DHT22;20673;48.980;8.138;2022-08-19T12:26:18;29.50;99.90
33994;DHT22;20673;48.980;8.138;2022-08-19T12:28:44;29.00;99.90
33994;DHT22;20673;48.980;8.138;2022-08-19T12:31:11;29.00;99.90
33994;DHT22;20673;48.980;8.138;2022-08-19T12:33:38;29.00;99.90
33994;DHT22;20673;48.980;8.138;2022-08-19T12:36:08;29.30;99.90
33994;DHT22;20673;48.980;8.138;2022-08-19T12:38:37;29.40;99.90
33994;DHT22;20673;48.980;8.138;2022-08-19T12:41:05;29.40;99.90
33994;DHT22;20673;48.980;8.138;2022-08-19T12:43:34;29.20;99.90
33994;DHT22;20673;48.980;8.138;2022-08-19T12:46:02;29.10;99.90
33994;DHT22;20673;48.980;8.138;2022-08-19T12:48:30;29.20;99.90
33994;DHT22;20673;48.980;8.138;2022-08-19T12:50:59;29.70;99.90
33994;DHT22;20673;48.980;8.138;2022-08-19T12:53:25;30.40;99.90
33994;DHT22;20673;48.980;8.138;2022-08-19T12:55:59;30.40;99.90
33994;DHT22;20673;48.980;8.138;2022-08-19T12:58:26;30.30;99.90
33994;DHT22;20673;48.980;8.138;2022-08-19T13:00:54;30.90;99.90
33994;DHT22;20673;48.980;8.138;2022-08-19T13:03:21;31.00;99.90
33994;DHT22;20673;48.980;8.138;2022-08-19T13:05:52;30.90;99.90
33994;DHT22;20673;48.980;8.138;2022-08-19T13:08:18;30.30;99.90
33994;DHT22;20673;48.980;8.138;2022-08-19T13:10:44;29.80;99.90
33994;DHT22;20673;48.980;8.138;2022-08-19T13:13:11;29.60;99.90
33994;DHT22;20673;48.980;8.138;2022-08-19T13:15:40;29.40;99.90
33994;DHT22;20673;48.980;8.138;2022-08-19T13:18:08;29.30;99.90
33994;DHT22;20673;48.980;8.138;2022-08-19T13:20:37;29.20;99.90
33994;DHT22;20673;48.980;8.138;2022-08-19T13:23:06;29.40;99.90
33994;DHT22;20673;48.980;8.138;2022-08-19T13:25:33;29.60;99.90
33994;DHT22;20673;48.980;8.138;2022-08-19T13:28:02;29.80;99.90
33994;DHT22;20673;48.980;8.138;2022-08-19T13:30:28;29.70;99.90
33994;DHT22;20673;48.980;8.138;2022-08-19T13:33:13;29.50;99.90
33994;DHT22;20673;48.980;8.138;2022-08-19T13:35:56;29.30;99.90
33994;DHT22;20673;48.980;8.138;2022-08-19T13:38:27;29.20;99.90
33994;DHT22;20673;48.980;8.138;2022-08-19T13:40:54;29.30;99.90
33994;DHT22;20673;48.980;8.138;2022-08-19T13:43:23;29.20;99.90
33994;DHT22;20673;48.980;8.138;2022-08-19T13:45:52;29.00;99.90
33994;DHT22;20673;48.980;8.138;2022-08-19T13:48:22;28.90;99.90
33994;DHT22;20673;48.980;8.138;2022-08-19T13:50:49;28.80;99.90
33994;DHT22;20673;48.980;8.138;2022-08-19T13:53:15;28.70;99.90
33994;DHT22;20673;48.980;8.138;2022-08-19T13:55:43;28.70;99.90
33994;DHT22;20673;48.980;8.138;2022-08-19T13:58:10;28.80;99.90
33994;DHT22;20673;48.980;8.138;2022-08-19T14:00:42;28.90;99.90
33994;DHT22;20673;48.980;8.138;2022-08-19T14:03:09;29.40;99.90
33994;DHT22;20673;48.980;8.138;2022-08-19T14:05:35;30.10;99.90
33994;DHT22;20673;48.980;8.138;2022-08-19T14:08:02;30.60;99.90
33994;DHT22;20673;48.980;8.138;2022-08-19T14:10:29;30.90;99.90
33994;DHT22;20673;48.980;8.138;2022-08-19T14:12:59;31.10;99.90
33994;DHT22;20673;48.980;8.138;2022-08-19T14:15:28;31.20;99.90
33994;DHT22;20673;48.980;8.138;2022-08-19T14:17:55;31.00;99.90
33994;DHT22;20673;48.980;8.138;2022-08-19T14:20:21;31.10;99.90
33994;DHT22;20673;48.980;8.138;2022-08-19T14:22:49;31.40;99.90
33994;DHT22;20673;48.980;8.138;2022-08-19T14:25:19;31.50;99.90
33994;DHT22;20673;48.980;8.138;2022-08-19T14:27:48;31.50;99.90
33994;DHT22;20673;48.980;8.138;2022-08-19T14:30:18;31.50;99.90
33994;DHT22;20673;48.980;8.138;2022-08-19T14:32:46;31.80;99.90
33994;DHT22;20673;48.980;8.138;2022-08-19T14:35:13;32.00;99.90
33994;DHT22;20673;48.980;8.138;2022-08-19T14:37:41;31.50;99.90
33994;DHT22;20673;48.980;8.138;2022-08-19T14:40:09;31.00;99.90
33994;DHT22;20673;48.980;8.138;2022-08-19T14:42:37;30.50;99.90
33994;DHT22;20673;48.980;8.138;2022-08-19T14:45:04;30.10;99.90
33994;DHT22;20673;48.980;8.138;2022-08-19T14:47:31;29.80;99.90
33994;DHT22;20673;48.980;8.138;2022-08-19T14:49:58;29.60;99.90
33994;DHT22;20673;48.980;8.138;2022-08-19T14:52:24;29.60;99.90
33994;DHT22;20673;48.980;8.138;2022-08-19T14:54:50;29.50;99.90
33994;DHT22;20673;48.980;8.138;2022-08-19T14:57:17;29.50;99.90
33994;DHT22;20673;48.980;8.138;2022-08-19T14:59:43;29.50;99.90
33994;DHT22;20673;48.980;8.138;2022-08-19T15:02:10;29.50;99.90
33994;DHT22;20673;48.980;8.138;2022-08-19T15:04:37;29.60;99.90
33994;DHT22;20673;48.980;8.138;2022-08-19T15:07:04;29.70;99.90
33994;DHT22;20673;48.980;8.138;2022-08-19T15:09:31;29.80;99.90
33994;DHT22;20673;48.980;8.138;2022-08-19T15:11:59;30.00;99.90
33994;DHT22;20673;48.980;8.138;2022-08-19T15:14:28;30.20;99.90
33994;DHT22;20673;48.980;8.138;2022-08-19T15:17:04;30.30;99.90
33994;DHT22;20673;48.980;8.138;2022-08-19T15:19:31;30.50;99.90
33994;DHT22;20673;48.980;8.138;2022-08-19T15:21:58;31.00;99.90
33994;DHT22;20673;48.980;8.138;2022-08-19T15:24:25;31.30;99.90
33994;DHT22;20673;48.980;8.138;2022-08-19T15:26:54;31.50;99.70
33994;DHT22;20673;48.980;8.138;2022-08-19T15:29:21;31.70;98.50
33994;DHT22;20673;48.980;8.138;2022-08-19T15:31:51;31.60;98.40
33994;DHT22;20673;48.980;8.138;2022-08-19T15:34:19;31.70;97.50
33994;DHT22;20673;48.980;8.138;2022-08-19T15:36:46;31.70;97.80
33994;DHT22;20673;48.980;8.138;2022-08-19T15:39:12;31.40;97.60
33994;DHT22;20673;48.980;8.138;2022-08-19T15:41:38;31.00;98.50
33994;DHT22;20673;48.980;8.138;2022-08-19T15:44:10;30.50;99.20
33994;DHT22;20673;48.980;8.138;2022-08-19T15:46:42;30.40;99.90
33994;DHT22;20673;48.980;8.138;2022-08-19T15:49:11;30.50;99.90
33994;DHT22;20673;48.980;8.138;2022-08-19T15:51:40;30.70;99.90
33994;DHT22;20673;48.980;8.138;2022-08-19T15:54:12;30.80;99.90
33994;DHT22;20673;48.980;8.138;2022-08-19T15:56:39;31.00;99.90